Essen, Belgium
Current Conditions -  °F | °C
As of 3:55 AM on Thursday 27 Nov 2014 (Local Time) from EHWO Reporting Station
Haze Haze  
Wind Chill: 46°   Ceiling: 700
Heat Index: 46°   Visibility: 3mi
Dew Point: 46°   Wind: 3mph
Humidity: 100%   Direction: 110°ESE
Pressure: 29.77"   Gusts: NA
Location:  51.46°N, 4.45°E
Report Text: EHWO 270255Z AUTO 11003KT 4900 BR OVC007 08/08 Q1008 GRN
Loading
Personal Weather Stations






























Interactive Weather Map New forecast layout! Learn more

10-Day Weather Forecast

Advertisements
Track Severe Weather on mobile